createdAt,value
2019-04-11T00:00:43.760Z,99.90
2019-04-11T00:03:31.968Z,99.90
2019-04-11T00:06:20.453Z,99.90
2019-04-11T00:09:11.986Z,99.90
2019-04-11T00:12:00.084Z,99.90
2019-04-11T00:14:48.572Z,99.90
2019-04-11T00:17:36.654Z,99.90
2019-04-11T00:20:25.502Z,99.90
2019-04-11T00:23:14.258Z,99.90
2019-04-11T00:26:02.607Z,99.90
2019-04-11T00:28:50.491Z,99.90
2019-04-11T00:31:39.152Z,99.90
2019-04-11T00:34:27.049Z,99.90
2019-04-11T00:37:14.953Z,99.90
2019-04-11T00:40:03.908Z,99.90
2019-04-11T00:42:52.647Z,99.90
2019-04-11T00:45:40.336Z,99.90
2019-04-11T00:48:28.478Z,99.90
2019-04-11T00:51:17.643Z,99.90
2019-04-11T00:54:06.706Z,99.90
2019-04-11T00:56:55.309Z,99.90
2019-04-11T00:59:43.114Z,99.90
2019-04-11T01:02:31.552Z,99.90
2019-04-11T01:05:19.878Z,99.90
2019-04-11T01:08:07.751Z,99.90
2019-04-11T01:10:57.378Z,99.90
2019-04-11T01:13:50.947Z,99.90
2019-04-11T01:16:44.872Z,99.90
2019-04-11T01:19:33.022Z,99.90
2019-04-11T01:22:21.016Z,99.90
2019-04-11T01:25:10.361Z,99.90
2019-04-11T01:27:58.529Z,99.90
2019-04-11T01:30:57.636Z,99.90
2019-04-11T01:33:46.342Z,99.90
2019-04-11T01:36:35.328Z,99.90
2019-04-11T01:39:33.444Z,99.90
2019-04-11T01:42:22.778Z,99.90
2019-04-11T01:45:11.530Z,99.90
2019-04-11T01:48:22.145Z,99.90
2019-04-11T01:51:09.931Z,99.90
2019-04-11T01:53:59.366Z,99.90
2019-04-11T01:56:47.520Z,99.90
2019-04-11T01:59:35.747Z,99.90
2019-04-11T02:02:59.033Z,99.90
2019-04-11T02:05:47.601Z,99.90
2019-04-11T02:08:35.575Z,99.90
2019-04-11T02:11:24.181Z,99.90
2019-04-11T02:14:16.149Z,99.90
2019-04-11T02:17:01.683Z,99.90
2019-04-11T02:19:50.224Z,99.90
2019-04-11T02:22:55.061Z,99.90
2019-04-11T02:26:05.177Z,99.90
2019-04-11T02:28:53.051Z,99.90
2019-04-11T02:31:42.419Z,99.90
2019-04-11T02:34:31.547Z,99.90
2019-04-11T02:37:19.841Z,99.90
2019-04-11T02:40:08.942Z,99.90
2019-04-11T02:42:57.420Z,99.90
2019-04-11T02:45:58.544Z,99.90
2019-04-11T02:48:36.116Z,99.90
2019-04-11T02:51:25.006Z,99.90
2019-04-11T02:54:15.991Z,99.90
2019-04-11T02:57:05.572Z,99.90
2019-04-11T02:59:55.482Z,99.90
2019-04-11T03:02:44.488Z,99.90
2019-04-11T03:05:34.529Z,99.90
2019-04-11T03:08:22.739Z,99.90
2019-04-11T03:11:11.203Z,99.90
2019-04-11T03:14:01.273Z,99.90
2019-04-11T03:16:57.574Z,99.90
2019-04-11T03:19:54.718Z,99.90
2019-04-11T03:22:29.862Z,99.90
2019-04-11T03:25:18.178Z,99.90
2019-04-11T03:28:12.066Z,99.90
2019-04-11T03:31:26.790Z,99.90
2019-04-11T03:34:51.942Z,99.90
2019-04-11T03:37:13.549Z,99.90
2019-04-11T03:39:48.787Z,99.90
2019-04-11T03:42:34.386Z,99.90
2019-04-11T03:45:26.145Z,99.90
2019-04-11T03:48:11.016Z,99.90
2019-04-11T03:50:46.619Z,99.90
2019-04-11T03:53:36.661Z,99.90
2019-04-11T03:56:26.459Z,99.90
2019-04-11T03:59:16.598Z,99.90
2019-04-11T04:02:05.818Z,99.90
2019-04-11T04:04:54.228Z,99.90
2019-04-11T04:07:44.150Z,99.90
2019-04-11T04:10:34.058Z,99.90
2019-04-11T04:13:23.226Z,99.90
2019-04-11T04:16:31.038Z,99.90
2019-04-11T04:19:49.963Z,99.90
2019-04-11T04:23:03.188Z,99.90
2019-04-11T04:25:51.669Z,99.90
2019-04-11T04:28:40.889Z,99.90
2019-04-11T04:31:30.638Z,99.90
2019-04-11T04:34:19.671Z,99.90
2019-04-11T04:37:08.266Z,99.90
2019-04-11T04:40:21.621Z,99.90
2019-04-11T04:42:52.095Z,99.90
2019-04-11T04:45:59.737Z,99.90
2019-04-11T04:48:29.246Z,99.90
2019-04-11T04:51:18.317Z,99.90
2019-04-11T04:54:06.162Z,99.90
2019-04-11T04:56:56.081Z,99.90
2019-04-11T04:59:44.807Z,99.90
2019-04-11T05:02:35.047Z,99.90
2019-04-11T05:05:24.222Z,99.90
2019-04-11T05:08:12.582Z,99.90
2019-04-11T05:11:02.195Z,99.90
2019-04-11T05:13:51.808Z,99.90
2019-04-11T05:16:39.916Z,99.90
2019-04-11T05:19:28.585Z,99.90
2019-04-11T05:22:17.043Z,99.90
2019-04-11T05:25:05.476Z,99.90
2019-04-11T05:27:54.037Z,99.90
2019-04-11T05:30:42.275Z,99.90
2019-04-11T05:33:31.470Z,99.90
2019-04-11T05:36:20.638Z,99.90
2019-04-11T05:39:10.501Z,99.90
2019-04-11T05:41:58.742Z,99.90
2019-04-11T05:44:47.073Z,99.90
2019-04-11T05:47:37.240Z,99.90
2019-04-11T05:50:30.309Z,99.90
2019-04-11T05:53:19.941Z,99.90
2019-04-11T05:56:09.168Z,99.90
2019-04-11T05:59:01.921Z,99.90
2019-04-11T06:01:54.954Z,99.90
2019-04-11T06:04:50.118Z,99.90
2019-04-11T06:07:57.600Z,99.90
2019-04-11T06:11:07.335Z,99.90
2019-04-11T06:14:20.261Z,99.90
2019-04-11T06:17:11.488Z,99.90
2019-04-11T06:20:19.823Z,99.90
2019-04-11T06:23:25.673Z,99.90
2019-04-11T06:26:34.559Z,99.90
2019-04-11T06:29:28.386Z,99.90
2019-04-11T06:32:34.141Z,99.90
2019-04-11T06:35:41.101Z,99.90
2019-04-11T06:38:55.141Z,99.90
2019-04-11T06:42:05.872Z,99.90
2019-04-11T06:45:29.314Z,99.90
2019-04-11T06:48:42.556Z,99.90
2019-04-11T06:51:34.056Z,99.90
2019-04-11T06:54:41.397Z,99.90
2019-04-11T06:57:30.040Z,99.90
2019-04-11T07:00:18.122Z,99.90
2019-04-11T07:03:17.425Z,99.90
2019-04-11T07:05:57.380Z,99.90
2019-04-11T07:08:56.752Z,99.90
2019-04-11T07:11:48.476Z,99.90
2019-04-11T07:14:53.422Z,99.90
2019-04-11T07:18:00.940Z,99.90
2019-04-11T07:21:06.318Z,99.90
2019-04-11T07:24:12.553Z,99.90
2019-04-11T07:27:06.057Z,99.90
2019-04-11T07:30:13.511Z,99.90
2019-04-11T07:33:18.086Z,99.90
2019-04-11T07:36:23.821Z,99.90
2019-04-11T07:39:31.156Z,99.90
2019-04-11T07:42:41.108Z,99.90
2019-04-11T07:45:40.203Z,99.90
2019-04-11T07:48:35.758Z,99.90
2019-04-11T07:51:32.136Z,99.90
2019-04-11T07:54:22.456Z,99.90
2019-04-11T07:57:24.673Z,99.90
2019-04-11T08:00:38.555Z,99.90
2019-04-11T08:03:39.949Z,99.90
2019-04-11T08:06:56.355Z,99.90
2019-04-11T08:09:57.150Z,99.90
2019-04-11T08:12:45.895Z,99.90
2019-04-11T08:15:51.628Z,99.90
2019-04-11T08:19:10.661Z,99.90
2019-04-11T08:22:08.459Z,99.90
2019-04-11T08:25:16.081Z,99.90
2019-04-11T08:28:07.931Z,99.90
2019-04-11T08:31:26.535Z,99.90
2019-04-11T08:34:15.252Z,99.90
2019-04-11T08:37:23.290Z,99.90
2019-04-11T08:40:11.850Z,99.90
2019-04-11T08:43:11.024Z,99.90
2019-04-11T08:46:06.715Z,99.90
2019-04-11T08:48:57.497Z,99.90
2019-04-11T08:51:45.719Z,99.90
2019-04-11T08:54:58.012Z,99.90
2019-04-11T08:57:56.509Z,99.90
2019-04-11T09:00:59.304Z,99.90
2019-04-11T09:04:15.639Z,99.90
2019-04-11T09:07:05.203Z,99.90
2019-04-11T09:10:22.052Z,99.90
2019-04-11T09:13:18.076Z,99.90
2019-04-11T09:16:25.445Z,99.90
2019-04-11T09:19:21.491Z,99.90
2019-04-11T09:22:31.169Z,99.90
2019-04-11T09:25:39.069Z,99.90
2019-04-11T09:28:53.468Z,99.90
2019-04-11T09:32:11.562Z,99.90
2019-04-11T09:35:06.170Z,99.90
2019-04-11T09:37:54.829Z,99.90
2019-04-11T09:40:50.091Z,99.90
2019-04-11T09:43:38.274Z,99.90
2019-04-11T09:46:40.745Z,99.90
2019-04-11T09:49:36.655Z,99.90
2019-04-11T09:52:40.930Z,99.90
2019-04-11T09:55:40.107Z,99.90
2019-04-11T09:58:28.312Z,99.90
2019-04-11T10:01:30.958Z,99.90
2019-04-11T10:04:19.408Z,99.90
2019-04-11T10:07:41.955Z,99.90
2019-04-11T10:10:40.308Z,99.90
2019-04-11T10:13:53.251Z,99.90
2019-04-11T10:17:00.146Z,99.90
2019-04-11T10:19:51.957Z,99.90
2019-04-11T10:22:58.417Z,99.90
2019-04-11T10:25:51.769Z,99.90
2019-04-11T10:28:55.115Z,99.90
2019-04-11T10:31:44.887Z,99.90
2019-04-11T10:34:43.904Z,99.90
2019-04-11T10:37:33.868Z,99.90
2019-04-11T10:40:50.393Z,99.90
2019-04-11T10:43:38.237Z,99.90
2019-04-11T10:46:37.543Z,99.90
2019-04-11T10:49:44.355Z,99.90
2019-04-11T10:52:36.445Z,99.90
2019-04-11T10:55:29.412Z,99.90
2019-04-11T10:58:24.728Z,99.90
2019-04-11T11:01:37.979Z,99.90
2019-04-11T11:04:41.068Z,99.90
2019-04-11T11:07:31.358Z,99.90
2019-04-11T11:10:23.742Z,99.90
2019-04-11T11:13:23.555Z,99.90
2019-04-11T11:16:11.945Z,99.90
2019-04-11T11:19:50.123Z,99.90
2019-04-11T11:22:48.164Z,99.90
2019-04-11T11:25:49.766Z,99.90
2019-04-11T11:28:43.226Z,99.90
2019-04-11T11:31:36.435Z,99.90
2019-04-11T11:34:49.271Z,99.90
2019-04-11T11:37:47.208Z,99.90
2019-04-11T11:40:54.222Z,99.90
2019-04-11T11:43:43.241Z,99.90
2019-04-11T11:46:59.827Z,99.90
2019-04-11T11:49:55.551Z,99.90
2019-04-11T11:52:51.255Z,99.90
2019-04-11T11:55:41.150Z,99.90
2019-04-11T11:58:55.408Z,99.90
2019-04-11T12:01:49.306Z,99.90
2019-04-11T12:04:54.047Z,99.90
2019-04-11T12:07:51.460Z,99.90
2019-04-11T12:10:55.693Z,99.90
2019-04-11T12:14:11.725Z,99.90
2019-04-11T12:17:18.598Z,99.90
2019-04-11T12:20:14.935Z,99.90
2019-04-11T12:23:06.554Z,99.90
2019-04-11T12:25:55.734Z,99.90
2019-04-11T12:29:12.187Z,99.90
2019-04-11T12:32:02.586Z,99.90
2019-04-11T12:35:04.098Z,99.90
2019-04-11T12:37:57.892Z,99.90
2019-04-11T12:41:04.169Z,99.90
2019-04-11T12:44:30.372Z,99.90
2019-04-11T12:47:22.532Z,99.90
2019-04-11T12:50:30.960Z,99.90
2019-04-11T12:53:20.703Z,99.90
2019-04-11T12:56:28.073Z,99.90
2019-04-11T12:59:20.511Z,99.90
2019-04-11T13:02:43.297Z,99.90
2019-04-11T13:05:31.947Z,99.90
2019-04-11T13:08:47.753Z,99.90
2019-04-11T13:11:36.644Z,99.90
2019-04-11T13:15:02.169Z,99.90
2019-04-11T13:18:06.662Z,99.90
2019-04-11T13:21:16.246Z,99.90
2019-04-11T13:24:21.361Z,99.90
2019-04-11T13:27:24.303Z,99.90
2019-04-11T13:30:45.867Z,99.90
2019-04-11T13:33:34.086Z,99.90
2019-04-11T13:36:40.446Z,99.90
2019-04-11T13:39:31.518Z,99.90
2019-04-11T13:42:27.873Z,99.80
2019-04-11T13:45:16.245Z,99.90
2019-04-11T13:48:22.458Z,99.90
2019-04-11T13:51:19.237Z,99.90
2019-04-11T13:54:25.158Z,99.90
2019-04-11T13:57:41.400Z,99.90
2019-04-11T14:00:47.278Z,99.90
2019-04-11T14:04:00.037Z,99.90
2019-04-11T14:06:50.799Z,99.90
2019-04-11T14:09:45.518Z,99.90
2019-04-11T14:12:34.102Z,99.90
2019-04-11T14:15:22.295Z,99.90
2019-04-11T14:18:28.735Z,99.90
2019-04-11T14:21:21.457Z,99.90
2019-04-11T14:24:30.611Z,99.90
2019-04-11T14:27:25.261Z,99.90
2019-04-11T14:30:31.132Z,99.90
2019-04-11T14:33:19.139Z,99.90
2019-04-11T14:36:33.272Z,99.90
2019-04-11T14:39:16.138Z,99.90
2019-04-11T14:42:25.865Z,99.90
2019-04-11T14:45:36.686Z,99.90
2019-04-11T14:48:42.667Z,99.90
2019-04-11T14:51:59.118Z,99.90
2019-04-11T14:54:49.861Z,99.90
2019-04-11T14:57:46.942Z,99.90
2019-04-11T15:00:37.260Z,99.90
2019-04-11T15:03:43.391Z,99.90
2019-04-11T15:06:34.462Z,99.90
2019-04-11T15:09:37.791Z,99.90
2019-04-11T15:12:27.018Z,99.90
2019-04-11T15:15:39.090Z,99.90
2019-04-11T15:18:27.529Z,99.90
2019-04-11T15:21:23.253Z,99.90
2019-04-11T15:24:11.802Z,99.90
2019-04-11T15:27:31.282Z,99.90
2019-04-11T15:30:19.720Z,99.90
2019-04-11T15:33:25.815Z,99.90
2019-04-11T15:36:14.953Z,99.90
2019-04-11T15:39:20.880Z,99.90
2019-04-11T15:42:10.976Z,99.90
2019-04-11T15:45:17.370Z,99.90
2019-04-11T15:48:27.349Z,99.90
2019-04-11T15:51:35.118Z,99.90
2019-04-11T15:54:42.464Z,99.90
2019-04-11T15:57:34.960Z,99.20
2019-04-11T16:00:51.438Z,98.80
2019-04-11T16:03:39.854Z,98.60
2019-04-11T16:06:46.539Z,97.80
2019-04-11T16:09:37.070Z,98.00
2019-04-11T16:12:31.576Z,97.20
2019-04-11T16:15:19.480Z,96.90
2019-04-11T16:18:38.790Z,96.80
2019-04-11T16:21:36.017Z,97.40
2019-04-11T16:24:30.135Z,97.10
2019-04-11T16:27:40.459Z,96.70
2019-04-11T16:30:28.253Z,97.00
2019-04-11T16:33:47.394Z,97.40
2019-04-11T16:37:00.626Z,97.20
2019-04-11T16:40:06.548Z,97.30
2019-04-11T16:43:01.172Z,97.50
2019-04-11T16:46:07.190Z,96.90
2019-04-11T16:48:55.904Z,97.10
2019-04-11T16:51:44.779Z,97.10
2019-04-11T16:54:32.370Z,96.90
2019-04-11T16:57:20.435Z,97.20
2019-04-11T17:00:12.686Z,97.10
2019-04-11T17:03:01.004Z,97.10
2019-04-11T17:05:58.950Z,96.90
2019-04-11T17:09:05.631Z,97.10
2019-04-11T17:11:57.294Z,97.10
2019-04-11T17:14:45.556Z,97.20
2019-04-11T17:17:33.841Z,97.10
2019-04-11T17:20:24.479Z,97.20
2019-04-11T17:23:17.342Z,97.00
2019-04-11T17:26:06.770Z,97.20
2019-04-11T17:28:59.991Z,97.40
2019-04-11T17:31:48.858Z,97.40
2019-04-11T17:34:37.143Z,97.50
2019-04-11T17:37:28.223Z,97.30
2019-04-11T17:40:16.355Z,97.50
2019-04-11T17:43:04.540Z,97.50
2019-04-11T17:45:52.391Z,97.70
2019-04-11T17:48:40.523Z,98.30
2019-04-11T17:51:29.078Z,98.20
2019-04-11T17:54:16.760Z,98.30
2019-04-11T17:57:04.750Z,98.10
2019-04-11T17:59:52.692Z,98.10
2019-04-11T18:02:54.234Z,98.10
2019-04-11T18:05:41.798Z,97.80
2019-04-11T18:08:30.003Z,97.90
2019-04-11T18:11:19.161Z,98.00
2019-04-11T18:14:07.051Z,98.10
2019-04-11T18:16:55.717Z,98.20
2019-04-11T18:19:45.187Z,98.60
2019-04-11T18:22:33.316Z,98.80
2019-04-11T18:25:21.596Z,99.10
2019-04-11T18:28:09.471Z,99.10
2019-04-11T18:30:57.318Z,98.80
2019-04-11T18:33:45.383Z,98.90
2019-04-11T18:36:33.828Z,99.50
2019-04-11T18:39:22.044Z,99.40
2019-04-11T18:42:10.189Z,98.90
2019-04-11T18:44:58.358Z,98.80
2019-04-11T18:47:46.022Z,99.00
2019-04-11T18:50:33.705Z,98.90
2019-04-11T18:53:21.471Z,99.00
2019-04-11T18:56:08.929Z,99.10
2019-04-11T18:58:56.687Z,99.10
2019-04-11T19:01:44.518Z,99.10
2019-04-11T19:04:33.045Z,99.10
2019-04-11T19:07:27.697Z,99.40
2019-04-11T19:10:14.550Z,99.10
2019-04-11T19:13:01.052Z,99.10
2019-04-11T19:15:49.380Z,98.90
2019-04-11T19:18:37.590Z,98.60
2019-04-11T19:21:25.222Z,98.50
2019-04-11T19:24:13.146Z,98.90
2019-04-11T19:27:01.020Z,98.50
2019-04-11T19:29:48.683Z,98.40
2019-04-11T19:32:38.790Z,98.60
2019-04-11T19:35:26.196Z,98.50
2019-04-11T19:38:29.190Z,99.30
2019-04-11T19:41:18.137Z,99.20
2019-04-11T19:44:06.336Z,99.00
2019-04-11T19:46:54.194Z,99.20
2019-04-11T19:49:42.303Z,99.70
2019-04-11T19:52:32.631Z,99.60
2019-04-11T19:55:28.627Z,99.90
2019-04-11T19:58:17.510Z,99.90
2019-04-11T20:01:05.506Z,99.90
2019-04-11T20:03:54.032Z,99.90
2019-04-11T20:06:42.460Z,99.90
2019-04-11T20:09:29.908Z,99.90
2019-04-11T20:12:17.752Z,99.90
2019-04-11T20:15:08.731Z,99.90
2019-04-11T20:17:55.614Z,99.90
2019-04-11T20:20:43.775Z,99.90
2019-04-11T20:23:31.785Z,99.90
2019-04-11T20:26:20.860Z,99.90
2019-04-11T20:29:08.854Z,99.90
2019-04-11T20:31:56.672Z,99.90
2019-04-11T20:34:45.190Z,99.90
2019-04-11T20:37:39.120Z,99.90
2019-04-11T20:40:23.122Z,99.90
2019-04-11T20:43:11.313Z,99.90
2019-04-11T20:45:59.188Z,99.90
2019-04-11T20:48:47.170Z,99.90
2019-04-11T20:51:35.200Z,99.90
2019-04-11T20:54:22.948Z,99.90
2019-04-11T20:57:12.225Z,99.90
2019-04-11T21:00:00.635Z,99.90
2019-04-11T21:02:48.399Z,99.90
2019-04-11T21:05:36.491Z,99.90
2019-04-11T21:08:23.708Z,99.90
2019-04-11T21:11:11.295Z,99.90
2019-04-11T21:13:58.887Z,99.90
2019-04-11T21:16:46.485Z,99.90
2019-04-11T21:19:34.127Z,99.90
2019-04-11T21:22:24.185Z,99.90
2019-04-11T21:25:14.021Z,99.90
2019-04-11T21:28:01.671Z,99.90
2019-04-11T21:30:49.707Z,99.80
2019-04-11T21:33:38.180Z,99.50
2019-04-11T21:36:27.027Z,99.10
2019-04-11T21:39:14.729Z,99.20
2019-04-11T21:42:05.891Z,99.00
2019-04-11T21:44:52.528Z,99.30
2019-04-11T21:47:40.340Z,99.00
2019-04-11T21:50:27.860Z,98.80
2019-04-11T21:53:16.153Z,98.50
2019-04-11T21:56:03.918Z,98.40
2019-04-11T21:58:52.095Z,98.30
2019-04-11T22:01:42.598Z,98.30
2019-04-11T22:04:31.176Z,98.20
2019-04-11T22:07:19.543Z,98.40
2019-04-11T22:10:08.441Z,98.40
2019-04-11T22:12:56.289Z,98.50
2019-04-11T22:15:43.876Z,98.50
2019-04-11T22:18:31.445Z,98.50
2019-04-11T22:21:19.355Z,98.60
2019-04-11T22:24:07.137Z,98.40
2019-04-11T22:26:54.843Z,98.60
2019-04-11T22:29:42.763Z,98.70
2019-04-11T22:32:30.813Z,98.70
2019-04-11T22:35:18.484Z,98.80
2019-04-11T22:38:05.759Z,98.90
2019-04-11T22:40:53.386Z,98.70
2019-04-11T22:43:41.428Z,98.80
2019-04-11T22:46:29.646Z,98.80
2019-04-11T22:49:17.552Z,98.90
2019-04-11T22:52:05.745Z,98.90
2019-04-11T22:54:53.736Z,99.00
2019-04-11T22:57:43.699Z,99.20
2019-04-11T23:00:30.947Z,99.10
2019-04-11T23:03:22.341Z,99.20
2019-04-11T23:06:10.351Z,99.30
2019-04-11T23:08:57.909Z,99.30
2019-04-11T23:11:46.073Z,99.40
2019-04-11T23:14:33.776Z,99.60
2019-04-11T23:17:21.535Z,99.70
2019-04-11T23:20:09.559Z,99.70
2019-04-11T23:22:57.132Z,99.90
2019-04-11T23:25:44.643Z,99.90
2019-04-11T23:28:32.219Z,99.90
2019-04-11T23:31:20.857Z,99.90
2019-04-11T23:34:09.355Z,99.90
2019-04-11T23:36:56.491Z,99.90
2019-04-11T23:39:44.304Z,99.90
2019-04-11T23:42:32.068Z,99.90
2019-04-11T23:45:23.314Z,99.90
2019-04-11T23:48:10.731Z,99.90
2019-04-11T23:50:58.627Z,99.90
2019-04-11T23:53:45.871Z,99.90
2019-04-11T23:56:34.318Z,99.90
2019-04-11T23:59:22.169Z,99.90
